Decoded Metar for KMSN (MADISON in WI, USA) (IATA:MSN) | Meteo·Mobile Aviation Weather
aviador You're here:

KMSN Decoded Metar

MADISON in WI, USA
Report Time2019-03-22 09:53:00
UTC Time2019-03-22 10:24:52
Flight Rules vfr VFR
Wind350° at 10 kt
W.Decomp.*RWY 36: 9.9 kt HW 1.2 kt LCW
RWY 32: 8.4 kt HW 5.4 kt RCW
RWY 03: 8.0 kt HW 6 kt LCW
W.Rank350° ranks 11
Current wind is above 350° avg. (7.1)
Visibility9999 m
Phenomena:N/A
Clouds:N/A
Expected CloudBase > 2,000 ft AGL from Temp-Dew spread
CeilingNone
Temp03°C (ISA -10)
Dew Point-2°C (70% RH)
AAT-2.9°C
QNH1015 hPa
Density Alt-384 ft
Elevation856 ft
Report Wrong Elevation
Raw Report
KMSN 220953Z AUTO 35010KT 10SM CLR 03/M02 A2998 RMK AO2 SLP158
T00281017=

Extra information for KMSN:More info

Metar Taf Metar & Taf Last 4 Metars F.Rules Stats Wind Profile Meteogram Temp Stats Airport Information Weather charts Add Link Nearby VenuesMetar ALERT Operation Metar Decoded Social comments

AIRNAV info for KMSN